createdAt,value
2023-01-07T00:04:27.842Z,89.21
2023-01-07T00:09:29.427Z,89.42
2023-01-07T00:14:31.018Z,87.93
2023-01-07T00:19:32.959Z,88.64
2023-01-07T00:24:34.595Z,89.90
2023-01-07T00:29:36.261Z,91.38
2023-01-07T00:34:39.059Z,92.18
2023-01-07T00:39:42.040Z,94.21
2023-01-07T00:44:43.782Z,94.48
2023-01-07T00:49:46.924Z,93.80
2023-01-07T00:54:48.535Z,94.04
2023-01-07T00:59:50.251Z,93.78
2023-01-07T01:04:51.975Z,94.20
2023-01-07T01:09:53.655Z,93.63
2023-01-07T01:14:55.455Z,95.53
2023-01-07T01:19:57.118Z,97.92
2023-01-07T01:24:58.772Z,100.00
2023-01-07T01:30:02.164Z,100.00
2023-01-07T01:35:05.508Z,100.00
2023-01-07T01:40:08.124Z,100.00
2023-01-07T01:45:11.477Z,100.00
2023-01-07T01:50:30.674Z,100.00
2023-01-07T01:55:49.103Z,100.00
2023-01-07T02:00:51.828Z,100.00
2023-01-07T02:05:54.425Z,98.95
2023-01-07T02:11:27.573Z,98.35
2023-01-07T02:16:29.180Z,98.59
2023-01-07T02:21:40.271Z,96.65
2023-01-07T02:27:12.783Z,95.91
2023-01-07T02:32:43.340Z,96.30
2023-01-07T02:38:00.122Z,96.71
2023-01-07T02:43:11.908Z,96.75
2023-01-07T02:48:17.825Z,96.03
2023-01-07T02:53:21.010Z,95.50
2023-01-07T02:58:47.211Z,94.70
2023-01-07T03:04:12.616Z,94.13
2023-01-07T03:09:31.156Z,94.55
2023-01-07T03:14:46.421Z,94.84
2023-01-07T03:19:54.827Z,96.34
2023-01-07T03:24:58.108Z,95.72
2023-01-07T03:30:03.953Z,96.15
2023-01-07T03:35:08.067Z,97.90
2023-01-07T03:40:11.810Z,96.47
2023-01-07T03:45:20.063Z,95.55
2023-01-07T03:50:22.666Z,94.71
2023-01-07T03:55:25.620Z,95.51
2023-01-07T04:00:30.128Z,95.97
2023-01-07T04:05:43.776Z,96.43
2023-01-07T04:10:46.475Z,94.86
2023-01-07T04:15:49.038Z,94.60
2023-01-07T04:20:50.753Z,94.29
2023-01-07T04:25:52.763Z,93.36
2023-01-07T04:31:01.287Z,94.74
2023-01-07T04:36:05.499Z,94.95
2023-01-07T04:41:07.359Z,96.19
2023-01-07T04:46:09.275Z,94.27
2023-01-07T04:51:11.470Z,93.31
2023-01-07T04:56:13.961Z,92.16
2023-01-07T05:01:16.260Z,91.98
2023-01-07T05:06:19.019Z,91.64
2023-01-07T05:11:21.885Z,91.05
2023-01-07T05:16:26.548Z,91.54
2023-01-07T05:21:29.499Z,92.38
2023-01-07T05:26:31.219Z,92.86
2023-01-07T05:31:32.936Z,93.04
2023-01-07T05:36:34.640Z,93.90
2023-01-07T05:41:39.041Z,93.41
2023-01-07T05:46:41.636Z,93.60
2023-01-07T05:51:43.325Z,93.65
2023-01-07T05:56:45.012Z,93.83
2023-01-07T06:01:46.649Z,93.79
2023-01-07T06:06:48.263Z,94.42
2023-01-07T06:11:49.915Z,94.84
2023-01-07T06:16:51.551Z,94.36
2023-01-07T06:21:53.284Z,93.24
2023-01-07T06:26:54.892Z,93.12
2023-01-07T06:31:56.461Z,91.73
2023-01-07T06:36:58.122Z,92.80
2023-01-07T06:41:59.708Z,93.92
2023-01-07T06:47:01.329Z,92.27
2023-01-07T06:52:02.986Z,91.40
2023-01-07T06:57:04.658Z,93.52
2023-01-07T07:02:06.668Z,93.12
2023-01-07T07:07:08.272Z,92.97
2023-01-07T07:12:10.591Z,94.77
2023-01-07T07:17:12.311Z,95.16
2023-01-07T07:22:13.893Z,96.73
2023-01-07T07:27:15.557Z,96.76
2023-01-07T07:32:17.432Z,96.98
2023-01-07T07:37:19.120Z,97.82
2023-01-07T07:42:20.710Z,96.13
2023-01-07T07:47:24.074Z,95.43
2023-01-07T07:52:25.712Z,94.33
2023-01-07T07:57:27.522Z,93.65
2023-01-07T08:02:29.216Z,94.20
2023-01-07T08:07:32.032Z,91.54
2023-01-07T08:12:38.794Z,93.90
2023-01-07T08:17:40.452Z,91.41
2023-01-07T08:22:42.210Z,92.12
2023-01-07T08:27:43.863Z,92.10
2023-01-07T08:32:45.538Z,93.02
2023-01-07T08:37:47.219Z,93.81
2023-01-07T08:42:49.434Z,94.31
2023-01-07T08:47:51.051Z,92.42
2023-01-07T08:52:52.715Z,92.80
2023-01-07T08:57:54.379Z,91.35
2023-01-07T09:02:56.034Z,88.89
2023-01-07T09:07:58.113Z,89.24
2023-01-07T09:12:59.849Z,91.65
2023-01-07T09:18:03.611Z,91.47
2023-01-07T09:23:05.633Z,91.11
2023-01-07T09:28:07.231Z,90.66
2023-01-07T09:33:09.012Z,89.84
2023-01-07T09:38:10.641Z,86.51
2023-01-07T09:43:15.267Z,89.46
2023-01-07T09:48:24.718Z,88.88
2023-01-07T09:53:32.924Z,87.46
2023-01-07T09:58:37.045Z,88.16
2023-01-07T10:04:01.537Z,86.69
2023-01-07T10:09:15.927Z,85.20
2023-01-07T10:14:20.631Z,83.24
2023-01-07T10:19:37.331Z,82.82
2023-01-07T10:24:45.111Z,83.60
2023-01-07T10:29:52.047Z,82.78
2023-01-07T10:34:55.788Z,81.44
2023-01-07T10:40:18.975Z,80.79
2023-01-07T10:45:43.763Z,83.77
2023-01-07T10:51:14.745Z,83.32
2023-01-07T10:56:32.099Z,86.31
2023-01-07T11:01:43.851Z,85.77
2023-01-07T11:07:00.191Z,86.27
2023-01-07T11:12:13.137Z,88.98
2023-01-07T11:18:11.680Z,89.44
2023-01-07T11:23:27.969Z,87.18
2023-01-07T11:28:33.894Z,84.27
2023-01-07T11:34:03.420Z,77.32
2023-01-07T11:39:20.213Z,70.60
2023-01-07T11:44:22.044Z,72.72
2023-01-07T11:49:29.821Z,72.22
2023-01-07T11:54:32.651Z,73.00
2023-01-07T11:59:34.277Z,74.69
2023-01-07T12:04:37.044Z,74.07
2023-01-07T12:09:40.922Z,73.91
2023-01-07T12:14:47.747Z,70.88
2023-01-07T12:20:01.506Z,69.15
2023-01-07T12:25:24.441Z,68.58
2023-01-07T12:31:03.298Z,65.07
2023-01-07T12:36:20.896Z,64.61
2023-01-07T12:41:27.420Z,67.30
2023-01-07T12:46:39.374Z,66.65
2023-01-07T12:52:05.935Z,66.38
2023-01-07T12:57:21.650Z,68.69
2023-01-07T13:03:00.517Z,67.96
2023-01-07T13:08:05.910Z,67.93
2023-01-07T13:13:32.996Z,67.33
2023-01-07T13:18:34.687Z,68.14
2023-01-07T13:24:01.300Z,69.61
2023-01-07T13:29:09.577Z,69.77
2023-01-07T13:34:23.253Z,70.00
2023-01-07T13:39:55.308Z,68.08
2023-01-07T13:45:17.346Z,67.74
2023-01-07T13:50:38.784Z,67.19
2023-01-07T13:55:42.795Z,68.20
2023-01-07T14:01:01.867Z,69.21
2023-01-07T14:06:59.230Z,69.51
2023-01-07T14:12:38.540Z,71.45
2023-01-07T14:17:47.149Z,70.90
2023-01-07T14:22:54.931Z,70.56
2023-01-07T14:28:17.231Z,69.98
2023-01-07T14:33:33.651Z,68.75
2023-01-07T14:38:35.287Z,68.27
2023-01-07T14:43:43.426Z,70.85
2023-01-07T14:49:05.529Z,70.51
2023-01-07T14:54:25.846Z,70.47
2023-01-07T14:59:51.534Z,71.02
2023-01-07T15:05:11.822Z,71.70
2023-01-07T15:10:39.490Z,74.41
2023-01-07T15:16:01.327Z,75.50
2023-01-07T15:21:30.718Z,77.00
2023-01-07T15:26:53.664Z,77.92
2023-01-07T15:32:02.836Z,78.26
2023-01-07T15:37:06.598Z,78.68
2023-01-07T15:42:17.413Z,79.09
2023-01-07T15:47:34.298Z,80.40
2023-01-07T15:52:35.867Z,80.50
2023-01-07T15:57:38.789Z,80.72
2023-01-07T16:02:43.444Z,81.40
2023-01-07T16:07:56.635Z,82.81
2023-01-07T16:13:15.394Z,83.92
2023-01-07T16:18:19.128Z,85.16
2023-01-07T16:23:25.205Z,86.14
2023-01-07T16:28:32.272Z,87.70
2023-01-07T16:33:35.142Z,88.81
2023-01-07T16:38:37.874Z,90.03
2023-01-07T16:43:39.454Z,90.28
2023-01-07T16:48:41.349Z,90.77
2023-01-07T16:53:43.051Z,91.32
2023-01-07T16:58:55.508Z,91.81
2023-01-07T17:04:06.285Z,91.59
2023-01-07T17:09:21.434Z,91.88
2023-01-07T17:14:35.713Z,91.93
2023-01-07T17:19:40.658Z,93.26
2023-01-07T17:24:47.266Z,94.42
2023-01-07T17:29:50.000Z,95.82
2023-01-07T17:34:51.848Z,96.02
2023-01-07T17:39:53.661Z,95.68
2023-01-07T17:44:55.339Z,97.38
2023-01-07T17:49:57.021Z,96.28
2023-01-07T17:54:58.825Z,96.71
2023-01-07T18:00:00.491Z,97.54
2023-01-07T18:05:02.188Z,97.43
2023-01-07T18:10:04.367Z,99.70
2023-01-07T18:15:31.720Z,99.58
2023-01-07T18:20:34.322Z,99.62
2023-01-07T18:25:36.079Z,99.42
2023-01-07T18:30:39.050Z,99.35
2023-01-07T18:35:40.758Z,100.00
2023-01-07T18:40:43.352Z,100.00
2023-01-07T18:45:46.712Z,100.00
2023-01-07T18:50:49.965Z,99.14
2023-01-07T18:55:58.306Z,100.00
2023-01-07T19:01:04.849Z,100.00
2023-01-07T19:06:11.310Z,100.00
2023-01-07T19:11:14.364Z,100.00
2023-01-07T19:16:16.070Z,100.00
2023-01-07T19:21:17.838Z,100.00
2023-01-07T19:26:20.854Z,100.00
2023-01-07T19:31:22.648Z,100.00
2023-01-07T19:36:24.336Z,100.00
2023-01-07T19:41:26.508Z,100.00
2023-01-07T19:46:28.679Z,100.00
2023-01-07T19:51:30.479Z,100.00
2023-01-07T19:56:32.625Z,100.00
2023-01-07T20:01:34.534Z,100.00
2023-01-07T20:06:41.259Z,100.00
2023-01-07T20:11:43.069Z,100.00
2023-01-07T20:16:44.813Z,100.00
2023-01-07T20:21:46.811Z,100.00
2023-01-07T20:26:48.536Z,100.00
2023-01-07T20:31:50.390Z,100.00
2023-01-07T20:36:52.121Z,100.00
2023-01-07T20:41:53.935Z,100.00
2023-01-07T20:46:55.642Z,100.00
2023-01-07T20:51:57.282Z,100.00
2023-01-07T20:56:58.944Z,100.00
2023-01-07T21:02:00.824Z,100.00
2023-01-07T21:07:02.835Z,100.00
2023-01-07T21:12:04.666Z,100.00
2023-01-07T21:17:06.451Z,100.00
2023-01-07T21:22:08.158Z,100.00
2023-01-07T21:27:09.861Z,100.00
2023-01-07T21:32:11.788Z,100.00
2023-01-07T21:37:13.457Z,100.00
2023-01-07T21:42:15.257Z,100.00
2023-01-07T21:47:16.903Z,100.00
2023-01-07T21:52:19.168Z,100.00
2023-01-07T21:57:20.880Z,100.00
2023-01-07T22:02:22.592Z,100.00
2023-01-07T22:07:24.255Z,100.00
2023-01-07T22:12:26.200Z,100.00
2023-01-07T22:17:27.835Z,100.00
2023-01-07T22:22:29.520Z,100.00
2023-01-07T22:27:31.112Z,100.00
2023-01-07T22:32:32.725Z,100.00
2023-01-07T22:37:35.107Z,100.00
2023-01-07T22:42:46.348Z,100.00
2023-01-07T22:47:50.622Z,100.00
2023-01-07T22:52:52.305Z,100.00
2023-01-07T22:57:54.231Z,100.00
2023-01-07T23:02:55.919Z,100.00
2023-01-07T23:07:58.399Z,100.00
2023-01-07T23:13:00.086Z,100.00
2023-01-07T23:18:01.866Z,100.00
2023-01-07T23:23:03.498Z,100.00
2023-01-07T23:28:05.113Z,100.00
2023-01-07T23:33:06.849Z,100.00
2023-01-07T23:38:08.521Z,100.00
2023-01-07T23:43:10.173Z,100.00
2023-01-07T23:48:11.784Z,100.00
2023-01-07T23:53:13.384Z,100.00
2023-01-07T23:58:15.024Z,100.00
